createdAt,value
2022-11-24T00:00:00.069Z,4.07
2022-11-24T00:02:28.654Z,4.45
2022-11-24T00:04:55.828Z,3.90
2022-11-24T00:07:23.153Z,4.43
2022-11-24T00:09:50.323Z,4.40
2022-11-24T00:12:17.432Z,6.57
2022-11-24T00:14:44.965Z,4.40
2022-11-24T00:17:12.080Z,4.38
2022-11-24T00:19:39.219Z,5.05
2022-11-24T00:22:06.320Z,5.72
2022-11-24T00:24:35.702Z,4.45
2022-11-24T00:27:03.093Z,3.63
2022-11-24T00:29:30.191Z,3.88
2022-11-24T00:31:57.292Z,3.58
2022-11-24T00:34:24.382Z,4.03
2022-11-24T00:36:51.473Z,3.00
2022-11-24T00:39:18.644Z,2.03
2022-11-24T00:41:45.760Z,2.95
2022-11-24T00:44:14.508Z,3.97
2022-11-24T00:46:42.744Z,3.40
2022-11-24T00:49:10.303Z,3.72
2022-11-24T00:51:37.330Z,2.28
2022-11-24T00:54:04.496Z,2.65
2022-11-24T00:56:31.632Z,3.47
2022-11-24T00:58:58.785Z,4.18
2022-11-24T01:01:27.367Z,4.53
2022-11-24T01:03:55.640Z,3.58
2022-11-24T01:06:23.892Z,5.95
2022-11-24T01:08:51.277Z,5.25
2022-11-24T01:11:20.608Z,5.75
2022-11-24T01:13:49.353Z,4.97
2022-11-24T01:16:18.845Z,5.75
2022-11-24T01:18:46.040Z,5.47
2022-11-24T01:21:14.114Z,4.00
2022-11-24T01:23:41.581Z,4.75
2022-11-24T01:26:09.914Z,3.25
2022-11-24T01:28:38.556Z,3.35
2022-11-24T01:31:09.337Z,4.28
2022-11-24T01:33:36.658Z,3.42
2022-11-24T01:36:04.403Z,3.55
2022-11-24T01:38:31.567Z,4.95
2022-11-24T01:41:06.609Z,3.42
2022-11-24T01:43:33.795Z,4.70
2022-11-24T01:46:06.841Z,4.85
2022-11-24T01:48:38.383Z,6.15
2022-11-24T01:51:11.416Z,4.82
2022-11-24T01:53:40.348Z,5.75
2022-11-24T01:56:07.520Z,5.55
2022-11-24T01:58:36.491Z,4.07
2022-11-24T02:01:03.690Z,5.10
2022-11-24T02:03:35.211Z,3.45
2022-11-24T02:06:09.453Z,4.43
2022-11-24T02:08:51.895Z,3.97
2022-11-24T02:11:19.551Z,4.95
2022-11-24T02:13:48.276Z,4.57
2022-11-24T02:16:15.369Z,2.00
2022-11-24T02:18:42.901Z,6.68
2022-11-24T02:21:11.186Z,4.20
2022-11-24T02:23:43.413Z,4.95
2022-11-24T02:26:21.874Z,5.97
2022-11-24T02:28:49.273Z,4.75
2022-11-24T02:31:16.396Z,6.55
2022-11-24T02:33:43.576Z,2.75
2022-11-24T02:36:10.761Z,2.95
2022-11-24T02:38:37.834Z,4.28
2022-11-24T02:41:07.936Z,5.13
2022-11-24T02:43:38.299Z,5.15
2022-11-24T02:46:05.755Z,8.00
2022-11-24T02:48:32.870Z,4.32
2022-11-24T02:51:00.016Z,4.93
2022-11-24T02:53:27.248Z,3.33
2022-11-24T02:55:54.490Z,3.83
2022-11-24T02:58:23.099Z,3.75
2022-11-24T03:00:50.615Z,5.15
2022-11-24T03:03:17.802Z,5.20
2022-11-24T03:05:44.852Z,4.25
2022-11-24T03:08:13.284Z,5.00
2022-11-24T03:10:40.681Z,2.65
2022-11-24T03:13:08.064Z,4.65
2022-11-24T03:15:35.690Z,4.75
2022-11-24T03:18:02.806Z,4.75
2022-11-24T03:20:30.016Z,5.07
2022-11-24T03:22:57.242Z,4.28
2022-11-24T03:25:24.315Z,6.03
2022-11-24T03:27:53.110Z,6.25
2022-11-24T03:30:20.453Z,4.20
2022-11-24T03:32:47.633Z,5.28
2022-11-24T03:35:14.826Z,2.83
2022-11-24T03:37:41.968Z,4.47
2022-11-24T03:40:09.338Z,5.63
2022-11-24T03:42:36.407Z,4.13
2022-11-24T03:45:29.744Z,6.82
2022-11-24T03:47:51.567Z,3.42
2022-11-24T03:50:18.835Z,4.32
2022-11-24T03:52:45.885Z,5.03
2022-11-24T03:55:12.962Z,4.45
2022-11-24T03:57:40.043Z,4.15
2022-11-24T04:00:07.545Z,4.13
2022-11-24T04:02:35.004Z,4.53
2022-11-24T04:05:02.130Z,6.07
2022-11-24T04:07:29.206Z,5.90
2022-11-24T04:09:56.357Z,6.88
2022-11-24T04:12:43.193Z,4.47
2022-11-24T04:17:38.342Z,5.95
2022-11-24T04:20:05.693Z,8.82
2022-11-24T04:22:32.843Z,9.20
2022-11-24T12:02:48.487Z,6.57
2022-11-24T12:05:18.933Z,5.70
2022-11-24T12:07:46.575Z,6.88
2022-11-24T12:10:21.155Z,5.82
2022-11-24T12:12:51.461Z,3.67
2022-11-24T12:15:19.064Z,6.32
2022-11-24T12:17:54.446Z,3.10
2022-11-24T12:20:30.716Z,4.22
2022-11-24T12:23:03.891Z,3.83
2022-11-24T12:25:37.931Z,4.60
2022-11-24T12:28:11.161Z,5.78
2022-11-24T12:30:42.956Z,4.10
2022-11-24T12:33:30.452Z,3.63
2022-11-24T12:36:11.136Z,6.78
2022-11-24T12:38:54.392Z,4.65
2022-11-24T12:41:43.972Z,3.25
2022-11-24T12:44:31.518Z,5.78
2022-11-24T12:47:20.194Z,9.50
2022-11-24T12:50:02.432Z,2.58
2022-11-24T12:52:33.900Z,4.35
2022-11-24T12:55:01.943Z,2.70
2022-11-24T12:57:38.304Z,2.53
2022-11-24T13:00:14.107Z,5.07
2022-11-24T13:02:55.178Z,6.15
2022-11-24T13:05:28.107Z,8.80
2022-11-24T13:07:58.039Z,5.60
2022-11-24T13:10:55.409Z,3.05
2022-11-24T13:13:13.352Z,3.97
2022-11-24T13:18:45.225Z,6.57
2022-11-24T13:21:31.075Z,6.28
2022-11-24T13:23:59.186Z,6.65
2022-11-24T13:26:44.737Z,6.18
2022-11-24T13:29:34.099Z,6.32
2022-11-24T13:32:01.236Z,8.02
2022-11-24T13:34:43.258Z,6.60
2022-11-24T13:37:31.221Z,11.57
2022-11-24T13:40:28.140Z,4.32
2022-11-24T13:42:55.234Z,8.88
2022-11-24T13:45:55.737Z,6.55
2022-11-24T13:48:28.847Z,8.15
2022-11-24T13:50:58.646Z,16.40
2022-11-24T13:53:32.367Z,8.82
2022-11-24T13:56:20.373Z,5.20
2022-11-24T13:58:50.812Z,8.38
2022-11-24T14:01:21.237Z,9.82
2022-11-24T14:06:54.220Z,10.45
2022-11-24T14:09:23.938Z,7.82
2022-11-24T14:11:59.793Z,11.45
2022-11-24T14:14:32.227Z,12.07
2022-11-24T14:17:15.008Z,9.65
2022-11-24T14:19:43.242Z,8.73
2022-11-24T14:22:27.040Z,9.90
2022-11-24T14:24:55.856Z,9.57
2022-11-24T14:27:30.606Z,11.48
2022-11-24T14:29:59.325Z,4.97
2022-11-24T14:32:26.487Z,6.93
2022-11-24T14:34:54.705Z,6.70
2022-11-24T14:37:22.104Z,3.60
2022-11-24T14:39:49.426Z,6.28
2022-11-24T14:42:23.601Z,7.32
2022-11-24T14:44:53.083Z,8.25
2022-11-24T14:47:31.190Z,9.73
2022-11-24T14:50:10.122Z,11.55
2022-11-24T14:52:45.431Z,10.32
2022-11-24T14:55:23.985Z,8.90
2022-11-24T14:57:51.068Z,9.43
2022-11-24T15:00:29.809Z,9.07
2022-11-24T15:03:03.279Z,9.68
2022-11-24T15:05:49.339Z,12.40
2022-11-24T15:10:44.170Z,13.07
2022-11-24T15:13:19.782Z,9.77
2022-11-24T15:18:26.452Z,10.93
2022-11-24T15:20:53.868Z,9.43
2022-11-24T15:23:31.232Z,9.10
2022-11-24T15:26:18.654Z,10.27
2022-11-24T15:28:48.963Z,19.02
2022-11-24T15:31:16.172Z,15.68
2022-11-24T15:33:44.030Z,20.63
2022-11-24T15:36:14.260Z,14.07
2022-11-24T15:38:41.356Z,14.10
2022-11-24T15:41:28.730Z,17.98
2022-11-24T15:43:59.512Z,14.40
2022-11-24T15:46:27.601Z,10.15
2022-11-24T15:48:55.486Z,16.23
2022-11-24T15:51:24.149Z,23.17
2022-11-24T15:54:00.252Z,33.60
2022-11-24T15:56:28.380Z,31.42
2022-11-24T15:58:56.715Z,33.80
2022-11-24T16:01:25.058Z,31.75
2022-11-24T16:03:52.204Z,28.45
2022-11-24T16:06:24.505Z,25.38
2022-11-24T16:08:55.786Z,33.20
2022-11-24T16:11:23.237Z,40.72
2022-11-24T16:13:53.417Z,35.58
2022-11-24T16:16:22.065Z,39.20
2022-11-24T16:18:49.308Z,37.47
2022-11-24T16:21:16.578Z,41.22
2022-11-24T16:23:43.712Z,32.20
2022-11-24T16:26:11.030Z,37.30
2022-11-24T16:28:38.222Z,35.20
2022-11-24T16:31:05.569Z,38.28
2022-11-24T16:33:32.769Z,46.63
2022-11-24T16:35:59.950Z,46.92
2022-11-24T16:38:27.609Z,48.10
2022-11-24T16:40:56.611Z,46.08
2022-11-24T16:43:24.824Z,42.00
2022-11-24T16:46:01.352Z,43.28
2022-11-24T16:48:28.644Z,42.10
2022-11-24T16:50:55.628Z,40.58
2022-11-24T16:53:23.096Z,35.35
2022-11-24T16:55:56.664Z,30.98
2022-11-24T16:58:23.828Z,27.27
2022-11-24T17:00:51.064Z,27.00
2022-11-24T17:03:18.267Z,29.73
2022-11-24T17:05:45.555Z,27.73
2022-11-24T17:08:12.739Z,23.88
2022-11-24T17:10:40.132Z,24.33
2022-11-24T17:13:07.384Z,27.75
2022-11-24T17:15:39.189Z,22.35
2022-11-24T17:18:24.185Z,20.25
2022-11-24T17:20:52.223Z,19.73
2022-11-24T17:23:19.906Z,18.20
2022-11-24T17:25:48.624Z,20.27
2022-11-24T17:28:15.992Z,20.48
2022-11-24T17:30:43.176Z,22.67
2022-11-24T17:33:10.322Z,19.40
2022-11-24T17:35:38.038Z,22.63
2022-11-24T17:38:05.334Z,19.70
2022-11-24T17:40:32.537Z,16.15
2022-11-24T17:43:00.503Z,13.60
2022-11-24T17:45:30.865Z,13.82
2022-11-24T17:48:01.350Z,12.15
2022-11-24T17:50:28.466Z,9.48
2022-11-24T17:52:55.792Z,11.88
2022-11-24T17:55:22.929Z,13.18
2022-11-24T17:57:50.981Z,14.05
2022-11-24T18:00:18.506Z,16.20
2022-11-24T18:02:45.597Z,16.38
2022-11-24T18:05:12.718Z,9.82
2022-11-24T18:07:39.791Z,13.50
2022-11-24T18:10:07.238Z,13.18
2022-11-24T18:12:34.493Z,11.98
2022-11-24T18:15:03.190Z,8.70
2022-11-24T18:17:30.413Z,10.93
2022-11-24T18:19:57.584Z,11.15
2022-11-24T18:22:50.139Z,13.75
2022-11-24T18:25:12.047Z,14.35
2022-11-24T18:27:39.269Z,14.98
2022-11-24T18:30:06.750Z,9.23
2022-11-24T18:32:33.997Z,9.10
2022-11-24T18:35:01.156Z,8.50
2022-11-24T18:37:30.793Z,11.18
2022-11-24T18:39:57.967Z,9.63
2022-11-24T18:42:26.206Z,12.70
2022-11-24T18:44:54.313Z,13.88
2022-11-24T18:47:21.677Z,14.90
2022-11-24T18:49:48.800Z,15.50
2022-11-24T18:52:16.059Z,11.23
2022-11-24T18:54:43.295Z,8.02
2022-11-24T18:57:10.428Z,9.48
2022-11-24T18:59:37.674Z,8.73
2022-11-24T19:02:04.990Z,10.35
2022-11-24T19:04:32.173Z,14.63
2022-11-24T19:06:59.280Z,10.63
2022-11-24T19:09:29.601Z,11.50
2022-11-24T19:11:56.897Z,10.00
2022-11-24T19:14:24.104Z,11.25
2022-11-24T19:16:51.799Z,11.63
2022-11-24T19:19:19.217Z,13.13
2022-11-24T19:21:46.716Z,13.02
2022-11-24T19:24:13.945Z,13.63
2022-11-24T19:26:41.315Z,12.18
2022-11-24T19:29:08.772Z,14.88
2022-11-24T19:31:36.346Z,12.20
2022-11-24T19:34:05.583Z,12.55
2022-11-24T19:36:32.792Z,13.05
2022-11-24T19:39:02.327Z,13.27
2022-11-24T19:41:30.255Z,18.77
2022-11-24T19:43:58.833Z,12.27
2022-11-24T19:46:27.768Z,12.27
2022-11-24T19:48:57.357Z,14.00
2022-11-24T19:51:25.906Z,36.42
2022-11-24T19:53:53.611Z,26.17
2022-11-24T19:56:21.523Z,11.43
2022-11-24T19:58:49.610Z,7.13
2022-11-24T20:01:17.016Z,16.48
2022-11-24T20:03:45.107Z,13.30
2022-11-24T20:06:13.255Z,12.15
2022-11-24T20:08:41.310Z,12.90
2022-11-24T20:11:13.214Z,10.82
2022-11-24T20:13:41.611Z,10.52
2022-11-24T20:16:19.198Z,20.52
2022-11-24T20:18:47.069Z,7.97
2022-11-24T20:21:15.629Z,9.20
2022-11-24T20:23:43.225Z,8.63
2022-11-24T20:26:17.109Z,10.10
2022-11-24T20:28:44.246Z,9.40
2022-11-24T20:31:12.823Z,9.73
2022-11-24T20:33:40.165Z,11.15
2022-11-24T20:36:27.431Z,12.30
2022-11-24T20:38:55.279Z,10.10
2022-11-24T20:41:27.566Z,9.88
2022-11-24T20:43:55.476Z,9.45
2022-11-24T20:46:23.740Z,9.40
2022-11-24T20:48:51.245Z,8.73
2022-11-24T20:51:22.573Z,8.73
2022-11-24T20:53:53.731Z,9.80
2022-11-24T20:56:31.643Z,8.75
2022-11-24T20:58:59.144Z,11.52
2022-11-24T21:01:38.641Z,9.18
2022-11-24T21:04:09.402Z,7.07
2022-11-24T21:06:36.964Z,13.15
2022-11-24T21:09:05.121Z,11.00
2022-11-24T21:11:32.956Z,9.13
2022-11-24T21:14:01.323Z,6.97
2022-11-24T21:16:30.154Z,7.95
2022-11-24T21:19:01.868Z,11.75
2022-11-24T21:21:34.239Z,9.40
2022-11-24T21:24:05.941Z,10.05
2022-11-24T21:26:37.242Z,8.10
2022-11-24T21:29:04.974Z,10.23
2022-11-24T21:31:34.749Z,6.38
2022-11-24T21:34:01.924Z,7.70
2022-11-24T21:36:29.083Z,8.15
2022-11-24T21:38:57.287Z,9.23
2022-11-24T21:41:26.828Z,8.57
2022-11-24T21:43:56.188Z,7.20
2022-11-24T21:46:23.572Z,10.70
2022-11-24T21:48:51.230Z,6.80
2022-11-24T21:51:19.540Z,9.57
2022-11-24T21:53:47.166Z,8.13
2022-11-24T21:56:15.638Z,12.73
2022-11-24T21:58:50.243Z,13.35
2022-11-24T22:01:18.162Z,9.98
2022-11-24T22:03:46.017Z,6.55
2022-11-24T22:06:13.335Z,8.60
2022-11-24T22:08:40.608Z,11.02
2022-11-24T22:11:13.911Z,10.52
2022-11-24T22:13:41.571Z,17.08
2022-11-24T22:16:13.015Z,10.75
2022-11-24T22:18:40.969Z,9.52
2022-11-24T22:21:10.431Z,7.38
2022-11-24T22:23:37.664Z,12.48
2022-11-24T22:26:05.040Z,10.13
2022-11-24T22:28:34.013Z,12.77
2022-11-24T22:31:08.218Z,8.93
2022-11-24T22:33:35.824Z,11.38
2022-11-24T22:36:04.596Z,9.57
2022-11-24T22:38:32.448Z,12.50
2022-11-24T22:41:03.438Z,6.00
2022-11-24T22:43:32.071Z,9.23
2022-11-24T22:46:02.844Z,5.78
2022-11-24T22:48:30.154Z,14.85
2022-11-24T22:51:04.258Z,10.35
2022-11-24T22:53:31.444Z,6.70
2022-11-24T22:56:02.971Z,9.32
2022-11-24T22:58:31.011Z,6.70
2022-11-24T23:01:03.476Z,19.08
2022-11-24T23:03:32.927Z,9.82
2022-11-24T23:06:00.957Z,13.65
2022-11-24T23:08:27.992Z,19.42
2022-11-24T23:11:06.946Z,6.72
2022-11-24T23:13:34.536Z,8.38
2022-11-24T23:16:09.441Z,8.52
2022-11-24T23:18:36.950Z,6.70
2022-11-24T23:21:05.084Z,8.80
2022-11-24T23:23:32.440Z,9.40
2022-11-24T23:26:03.394Z,9.55
2022-11-24T23:28:30.792Z,8.38
2022-11-24T23:31:02.083Z,9.43
2022-11-24T23:33:29.267Z,5.80
2022-11-24T23:35:56.427Z,4.68
2022-11-24T23:38:28.929Z,5.97
2022-11-24T23:40:57.400Z,7.53
2022-11-24T23:43:24.386Z,7.97
2022-11-24T23:45:51.725Z,8.27
2022-11-24T23:48:18.957Z,8.65
2022-11-24T23:50:46.091Z,7.05
2022-11-24T23:53:13.271Z,8.90
2022-11-24T23:55:40.422Z,11.23
2022-11-24T23:58:07.613Z,10.43
